sensor_id;sensor_type;location;lat;lon;timestamp;temperature;humidity
30889;DHT22;51092;50.874;7.024;2023-01-16T00:00:13;6.50;94.60
30889;DHT22;51092;50.874;7.024;2023-01-16T00:01:14;6.50;94.50
30889;DHT22;51092;50.874;7.024;2023-01-16T00:02:17;6.50;94.70
30889;DHT22;51092;50.874;7.024;2023-01-16T00:03:19;6.40;94.80
30889;DHT22;51092;50.874;7.024;2023-01-16T00:04:23;6.40;94.90
30889;DHT22;51092;50.874;7.024;2023-01-16T00:05:24;6.40;94.90
30889;DHT22;51092;50.874;7.024;2023-01-16T00:06:27;6.40;95.10
30889;DHT22;51092;50.874;7.024;2023-01-16T00:07:28;6.40;95.10
30889;DHT22;51092;50.874;7.024;2023-01-16T00:08:31;6.40;95.00
30889;DHT22;51092;50.874;7.024;2023-01-16T00:09:32;6.40;95.00
30889;DHT22;51092;50.874;7.024;2023-01-16T00:10:35;6.40;95.10
30889;DHT22;51092;50.874;7.024;2023-01-16T00:11:36;6.30;95.30
30889;DHT22;51092;50.874;7.024;2023-01-16T00:12:39;6.30;95.30
30889;DHT22;51092;50.874;7.024;2023-01-16T00:13:40;6.30;95.30
30889;DHT22;51092;50.874;7.024;2023-01-16T00:14:43;6.30;95.30
30889;DHT22;51092;50.874;7.024;2023-01-16T00:15:45;6.30;95.20
30889;DHT22;51092;50.874;7.024;2023-01-16T00:16:48;6.30;95.20
30889;DHT22;51092;50.874;7.024;2023-01-16T00:17:50;6.30;95.20
30889;DHT22;51092;50.874;7.024;2023-01-16T00:18:53;6.30;95.10
30889;DHT22;51092;50.874;7.024;2023-01-16T00:19:56;6.30;95.20
30889;DHT22;51092;50.874;7.024;2023-01-16T00:20:58;6.30;95.20
30889;DHT22;51092;50.874;7.024;2023-01-16T00:22:00;6.40;95.10
30889;DHT22;51092;50.874;7.024;2023-01-16T00:23:03;6.40;95.00
30889;DHT22;51092;50.874;7.024;2023-01-16T00:24:05;6.40;95.00
30889;DHT22;51092;50.874;7.024;2023-01-16T00:25:09;6.50;94.90
30889;DHT22;51092;50.874;7.024;2023-01-16T00:26:13;6.50;94.90
30889;DHT22;51092;50.874;7.024;2023-01-16T00:27:16;6.50;94.90
30889;DHT22;51092;50.874;7.024;2023-01-16T00:28:17;6.50;94.90
30889;DHT22;51092;50.874;7.024;2023-01-16T00:29:20;6.50;94.90
30889;DHT22;51092;50.874;7.024;2023-01-16T00:30:22;6.60;94.80
30889;DHT22;51092;50.874;7.024;2023-01-16T00:31:25;6.60;94.70
30889;DHT22;51092;50.874;7.024;2023-01-16T00:32:26;6.60;94.60
30889;DHT22;51092;50.874;7.024;2023-01-16T00:33:28;6.60;94.80
30889;DHT22;51092;50.874;7.024;2023-01-16T00:34:29;6.50;94.70
30889;DHT22;51092;50.874;7.024;2023-01-16T00:35:33;6.50;94.60
30889;DHT22;51092;50.874;7.024;2023-01-16T00:36:34;6.50;94.80
30889;DHT22;51092;50.874;7.024;2023-01-16T00:37:39;6.50;94.80
30889;DHT22;51092;50.874;7.024;2023-01-16T00:38:41;6.50;94.90
30889;DHT22;51092;50.874;7.024;2023-01-16T00:39:43;6.50;94.70
30889;DHT22;51092;50.874;7.024;2023-01-16T00:40:44;6.40;94.90
30889;DHT22;51092;50.874;7.024;2023-01-16T00:41:46;6.40;94.90
30889;DHT22;51092;50.874;7.024;2023-01-16T00:42:47;6.50;94.90
30889;DHT22;51092;50.874;7.024;2023-01-16T00:43:49;6.50;95.10
30889;DHT22;51092;50.874;7.024;2023-01-16T00:44:51;6.40;95.00
30889;DHT22;51092;50.874;7.024;2023-01-16T00:45:53;6.40;95.10
30889;DHT22;51092;50.874;7.024;2023-01-16T00:46:55;6.40;95.10
30889;DHT22;51092;50.874;7.024;2023-01-16T00:47:57;6.40;95.10
30889;DHT22;51092;50.874;7.024;2023-01-16T00:48:59;6.40;95.20
30889;DHT22;51092;50.874;7.024;2023-01-16T00:50:02;6.40;95.20
30889;DHT22;51092;50.874;7.024;2023-01-16T00:51:06;6.40;95.20
30889;DHT22;51092;50.874;7.024;2023-01-16T00:52:08;6.40;95.20
30889;DHT22;51092;50.874;7.024;2023-01-16T00:53:10;6.40;95.10
30889;DHT22;51092;50.874;7.024;2023-01-16T00:54:12;6.30;95.30
30889;DHT22;51092;50.874;7.024;2023-01-16T00:55:14;6.30;95.30
30889;DHT22;51092;50.874;7.024;2023-01-16T00:56:16;6.30;95.30
30889;DHT22;51092;50.874;7.024;2023-01-16T00:57:18;6.30;95.50
30889;DHT22;51092;50.874;7.024;2023-01-16T00:58:20;6.20;95.60
30889;DHT22;51092;50.874;7.024;2023-01-16T00:59:22;6.20;95.80
30889;DHT22;51092;50.874;7.024;2023-01-16T01:00:25;6.20;95.80
30889;DHT22;51092;50.874;7.024;2023-01-16T01:01:26;6.20;96.00
30889;DHT22;51092;50.874;7.024;2023-01-16T01:02:29;6.20;96.00
30889;DHT22;51092;50.874;7.024;2023-01-16T01:03:31;6.10;96.20
30889;DHT22;51092;50.874;7.024;2023-01-16T01:04:33;6.10;96.30
30889;DHT22;51092;50.874;7.024;2023-01-16T01:05:35;6.00;96.50
30889;DHT22;51092;50.874;7.024;2023-01-16T01:06:41;6.00;96.80
30889;DHT22;51092;50.874;7.024;2023-01-16T01:07:44;6.00;97.00
30889;DHT22;51092;50.874;7.024;2023-01-16T01:08:45;6.00;97.10
30889;DHT22;51092;50.874;7.024;2023-01-16T01:09:48;6.00;97.10
30889;DHT22;51092;50.874;7.024;2023-01-16T01:10:50;6.00;97.30
30889;DHT22;51092;50.874;7.024;2023-01-16T01:11:52;6.00;97.10
30889;DHT22;51092;50.874;7.024;2023-01-16T01:12:54;6.10;97.10
30889;DHT22;51092;50.874;7.024;2023-01-16T01:13:57;6.10;96.80
30889;DHT22;51092;50.874;7.024;2023-01-16T01:14:58;6.10;96.90
30889;DHT22;51092;50.874;7.024;2023-01-16T01:16:00;6.10;97.10
30889;DHT22;51092;50.874;7.024;2023-01-16T01:17:02;6.10;97.20
30889;DHT22;51092;50.874;7.024;2023-01-16T01:18:05;6.10;97.00
30889;DHT22;51092;50.874;7.024;2023-01-16T01:19:06;6.10;96.90
30889;DHT22;51092;50.874;7.024;2023-01-16T01:20:09;6.10;96.90
30889;DHT22;51092;50.874;7.024;2023-01-16T01:21:10;6.10;97.10
30889;DHT22;51092;50.874;7.024;2023-01-16T01:22:13;6.10;97.40
30889;DHT22;51092;50.874;7.024;2023-01-16T01:23:16;6.10;97.90
30889;DHT22;51092;50.874;7.024;2023-01-16T01:24:19;6.10;98.50
30889;DHT22;51092;50.874;7.024;2023-01-16T01:25:21;6.00;99.30
30889;DHT22;51092;50.874;7.024;2023-01-16T01:26:23;6.00;99.90
30889;DHT22;51092;50.874;7.024;2023-01-16T01:27:23;6.00;99.90
30889;DHT22;51092;50.874;7.024;2023-01-16T01:28:25;6.00;99.90
30889;DHT22;51092;50.874;7.024;2023-01-16T01:29:26;6.00;99.90
30889;DHT22;51092;50.874;7.024;2023-01-16T01:30:29;6.00;99.90
30889;DHT22;51092;50.874;7.024;2023-01-16T01:31:30;6.00;99.90
30889;DHT22;51092;50.874;7.024;2023-01-16T01:32:33;6.00;99.90
30889;DHT22;51092;50.874;7.024;2023-01-16T01:33:35;6.00;99.90
30889;DHT22;51092;50.874;7.024;2023-01-16T01:34:37;6.00;99.90
30889;DHT22;51092;50.874;7.024;2023-01-16T01:35:39;5.90;99.90
30889;DHT22;51092;50.874;7.024;2023-01-16T01:36:44;5.80;99.90
30889;DHT22;51092;50.874;7.024;2023-01-16T01:37:48;5.80;99.90
30889;DHT22;51092;50.874;7.024;2023-01-16T01:38:51;5.80;99.90
30889;DHT22;51092;50.874;7.024;2023-01-16T01:39:54;5.80;99.90
30889;DHT22;51092;50.874;7.024;2023-01-16T01:40:57;5.90;99.90
30889;DHT22;51092;50.874;7.024;2023-01-16T01:41:58;5.90;99.90
30889;DHT22;51092;50.874;7.024;2023-01-16T01:43:15;5.90;99.90
30889;DHT22;51092;50.874;7.024;2023-01-16T01:44:51;5.80;99.90
30889;DHT22;51092;50.874;7.024;2023-01-16T01:45:54;5.90;99.90
30889;DHT22;51092;50.874;7.024;2023-01-16T01:46:57;5.90;99.60
30889;DHT22;51092;50.874;7.024;2023-01-16T01:48:04;5.90;99.70
30889;DHT22;51092;50.874;7.024;2023-01-16T01:49:16;6.00;99.60
30889;DHT22;51092;50.874;7.024;2023-01-16T01:50:27;6.00;99.10
30889;DHT22;51092;50.874;7.024;2023-01-16T01:51:34;6.00;99.00
30889;DHT22;51092;50.874;7.024;2023-01-16T01:52:37;6.00;99.00
30889;DHT22;51092;50.874;7.024;2023-01-16T01:53:46;6.10;98.50
30889;DHT22;51092;50.874;7.024;2023-01-16T01:54:52;6.10;98.80
30889;DHT22;51092;50.874;7.024;2023-01-16T01:56:05;6.10;98.40
30889;DHT22;51092;50.874;7.024;2023-01-16T01:57:11;6.10;98.30
30889;DHT22;51092;50.874;7.024;2023-01-16T01:58:18;6.10;98.60
30889;DHT22;51092;50.874;7.024;2023-01-16T01:59:25;6.10;98.80
30889;DHT22;51092;50.874;7.024;2023-01-16T02:00:27;6.10;99.30
30889;DHT22;51092;50.874;7.024;2023-01-16T02:01:31;6.10;99.30
30889;DHT22;51092;50.874;7.024;2023-01-16T02:02:34;6.10;99.50
30889;DHT22;51092;50.874;7.024;2023-01-16T02:03:41;6.10;99.70
30889;DHT22;51092;50.874;7.024;2023-01-16T02:04:46;6.00;99.30
30889;DHT22;51092;50.874;7.024;2023-01-16T02:05:53;6.00;99.90
30889;DHT22;51092;50.874;7.024;2023-01-16T02:06:58;6.00;99.90
30889;DHT22;51092;50.874;7.024;2023-01-16T02:08:05;6.00;99.90
30889;DHT22;51092;50.874;7.024;2023-01-16T02:09:09;6.00;99.90
30889;DHT22;51092;50.874;7.024;2023-01-16T02:10:20;6.10;99.90
30889;DHT22;51092;50.874;7.024;2023-01-16T02:11:26;6.10;99.90
30889;DHT22;51092;50.874;7.024;2023-01-16T02:12:33;6.00;99.90
30889;DHT22;51092;50.874;7.024;2023-01-16T02:13:37;6.00;99.90
30889;DHT22;51092;50.874;7.024;2023-01-16T02:14:42;6.00;99.90
30889;DHT22;51092;50.874;7.024;2023-01-16T02:15:44;6.00;99.90
30889;DHT22;51092;50.874;7.024;2023-01-16T02:17:04;6.10;99.90
30889;DHT22;51092;50.874;7.024;2023-01-16T02:18:24;6.10;99.90
30889;DHT22;51092;50.874;7.024;2023-01-16T02:19:50;6.10;99.90
30889;DHT22;51092;50.874;7.024;2023-01-16T02:21:02;6.10;99.90
30889;DHT22;51092;50.874;7.024;2023-01-16T02:22:33;6.10;99.90
30889;DHT22;51092;50.874;7.024;2023-01-16T02:24:10;6.00;99.90
30889;DHT22;51092;50.874;7.024;2023-01-16T02:27:35;6.00;99.90
30889;DHT22;51092;50.874;7.024;2023-01-16T02:29:21;6.00;99.90
30889;DHT22;51092;50.874;7.024;2023-01-16T02:32:07;5.90;99.90
30889;DHT22;51092;50.874;7.024;2023-01-16T02:33:15;5.80;99.90
30889;DHT22;51092;50.874;7.024;2023-01-16T02:34:40;5.80;99.90
30889;DHT22;51092;50.874;7.024;2023-01-16T02:35:57;5.80;99.90
30889;DHT22;51092;50.874;7.024;2023-01-16T02:37:08;5.80;99.90
30889;DHT22;51092;50.874;7.024;2023-01-16T02:38:15;5.70;99.90
30889;DHT22;51092;50.874;7.024;2023-01-16T02:39:30;5.70;99.90
30889;DHT22;51092;50.874;7.024;2023-01-16T02:40:39;5.70;99.90
30889;DHT22;51092;50.874;7.024;2023-01-16T02:41:48;5.70;99.90
30889;DHT22;51092;50.874;7.024;2023-01-16T02:42:58;5.80;99.90
30889;DHT22;51092;50.874;7.024;2023-01-16T02:44:19;5.90;99.90
30889;DHT22;51092;50.874;7.024;2023-01-16T02:45:30;5.90;99.90
30889;DHT22;51092;50.874;7.024;2023-01-16T02:46:35;5.90;99.90
30889;DHT22;51092;50.874;7.024;2023-01-16T02:47:45;5.80;99.90
30889;DHT22;51092;50.874;7.024;2023-01-16T02:48:52;5.80;99.90
30889;DHT22;51092;50.874;7.024;2023-01-16T02:50:01;5.70;99.90
30889;DHT22;51092;50.874;7.024;2023-01-16T02:51:12;5.70;99.90
30889;DHT22;51092;50.874;7.024;2023-01-16T02:52:23;5.80;99.90
30889;DHT22;51092;50.874;7.024;2023-01-16T02:53:33;5.80;99.90
30889;DHT22;51092;50.874;7.024;2023-01-16T02:54:42;5.80;99.90
30889;DHT22;51092;50.874;7.024;2023-01-16T02:55:51;5.80;99.90
30889;DHT22;51092;50.874;7.024;2023-01-16T02:56:59;5.80;99.90
30889;DHT22;51092;50.874;7.024;2023-01-16T02:58:05;5.70;99.90
30889;DHT22;51092;50.874;7.024;2023-01-16T02:59:08;5.80;99.90
30889;DHT22;51092;50.874;7.024;2023-01-16T03:00:12;5.80;99.90
30889;DHT22;51092;50.874;7.024;2023-01-16T03:01:18;5.70;99.90
30889;DHT22;51092;50.874;7.024;2023-01-16T03:02:21;5.70;99.90
30889;DHT22;51092;50.874;7.024;2023-01-16T03:03:39;5.60;99.90
30889;DHT22;51092;50.874;7.024;2023-01-16T03:04:46;5.50;99.90
30889;DHT22;51092;50.874;7.024;2023-01-16T03:05:49;5.50;99.90
30889;DHT22;51092;50.874;7.024;2023-01-16T03:07:01;5.50;99.90
30889;DHT22;51092;50.874;7.024;2023-01-16T03:08:23;5.40;99.90
30889;DHT22;51092;50.874;7.024;2023-01-16T03:09:34;5.40;99.90
30889;DHT22;51092;50.874;7.024;2023-01-16T03:10:58;5.40;99.90
30889;DHT22;51092;50.874;7.024;2023-01-16T03:12:27;5.40;99.90
30889;DHT22;51092;50.874;7.024;2023-01-16T03:13:49;5.30;99.90
30889;DHT22;51092;50.874;7.024;2023-01-16T03:14:59;5.30;99.90
30889;DHT22;51092;50.874;7.024;2023-01-16T03:16:16;5.30;99.90
30889;DHT22;51092;50.874;7.024;2023-01-16T03:17:44;5.30;99.90
30889;DHT22;51092;50.874;7.024;2023-01-16T03:19:04;5.20;99.90
30889;DHT22;51092;50.874;7.024;2023-01-16T03:20:13;5.10;99.90
30889;DHT22;51092;50.874;7.024;2023-01-16T03:21:27;5.10;99.90
30889;DHT22;51092;50.874;7.024;2023-01-16T03:22:40;5.10;99.90
30889;DHT22;51092;50.874;7.024;2023-01-16T03:23:50;5.10;99.90
30889;DHT22;51092;50.874;7.024;2023-01-16T03:25:02;5.10;99.90
30889;DHT22;51092;50.874;7.024;2023-01-16T03:26:13;5.00;99.90
30889;DHT22;51092;50.874;7.024;2023-01-16T03:27:20;5.00;99.90
30889;DHT22;51092;50.874;7.024;2023-01-16T03:28:33;5.00;99.90
30889;DHT22;51092;50.874;7.024;2023-01-16T03:29:39;5.00;99.90
30889;DHT22;51092;50.874;7.024;2023-01-16T03:30:48;5.00;99.90
30889;DHT22;51092;50.874;7.024;2023-01-16T03:31:56;5.00;99.90
30889;DHT22;51092;50.874;7.024;2023-01-16T03:33:04;4.90;99.90
30889;DHT22;51092;50.874;7.024;2023-01-16T03:34:14;4.90;99.90
30889;DHT22;51092;50.874;7.024;2023-01-16T03:35:25;4.90;99.90
30889;DHT22;51092;50.874;7.024;2023-01-16T03:36:33;4.90;99.90
30889;DHT22;51092;50.874;7.024;2023-01-16T03:37:40;4.90;99.90
30889;DHT22;51092;50.874;7.024;2023-01-16T03:38:43;4.90;99.90
30889;DHT22;51092;50.874;7.024;2023-01-16T03:39:53;4.90;99.90
30889;DHT22;51092;50.874;7.024;2023-01-16T03:40:56;4.90;99.90
30889;DHT22;51092;50.874;7.024;2023-01-16T03:42:05;4.90;99.90
30889;DHT22;51092;50.874;7.024;2023-01-16T03:43:11;4.90;99.90
30889;DHT22;51092;50.874;7.024;2023-01-16T03:44:21;4.90;99.90
30889;DHT22;51092;50.874;7.024;2023-01-16T03:45:30;4.90;99.90
30889;DHT22;51092;50.874;7.024;2023-01-16T03:46:39;4.90;99.90
30889;DHT22;51092;50.874;7.024;2023-01-16T03:47:47;4.90;99.90
30889;DHT22;51092;50.874;7.024;2023-01-16T03:48:55;4.90;99.90
30889;DHT22;51092;50.874;7.024;2023-01-16T03:50:02;5.00;99.90
30889;DHT22;51092;50.874;7.024;2023-01-16T03:51:06;5.00;99.90
30889;DHT22;51092;50.874;7.024;2023-01-16T03:52:12;5.00;99.90
30889;DHT22;51092;50.874;7.024;2023-01-16T03:53:17;5.10;99.90
30889;DHT22;51092;50.874;7.024;2023-01-16T03:54:28;5.00;99.90
30889;DHT22;51092;50.874;7.024;2023-01-16T03:55:37;5.00;99.90
30889;DHT22;51092;50.874;7.024;2023-01-16T03:56:45;5.10;99.90
30889;DHT22;51092;50.874;7.024;2023-01-16T03:57:52;5.10;99.90
30889;DHT22;51092;50.874;7.024;2023-01-16T03:58:57;5.20;99.90
30889;DHT22;51092;50.874;7.024;2023-01-16T03:59:59;5.20;99.90
30889;DHT22;51092;50.874;7.024;2023-01-16T04:01:11;5.20;99.90
30889;DHT22;51092;50.874;7.024;2023-01-16T04:02:18;5.20;99.90
30889;DHT22;51092;50.874;7.024;2023-01-16T04:03:26;5.20;99.90
30889;DHT22;51092;50.874;7.024;2023-01-16T04:04:32;5.30;99.90
30889;DHT22;51092;50.874;7.024;2023-01-16T04:05:42;5.30;99.90
30889;DHT22;51092;50.874;7.024;2023-01-16T04:06:52;5.20;99.90
30889;DHT22;51092;50.874;7.024;2023-01-16T04:07:58;5.20;99.90
30889;DHT22;51092;50.874;7.024;2023-01-16T04:09:09;5.30;99.90
30889;DHT22;51092;50.874;7.024;2023-01-16T04:10:17;5.20;99.90
30889;DHT22;51092;50.874;7.024;2023-01-16T04:11:23;5.20;99.90
30889;DHT22;51092;50.874;7.024;2023-01-16T04:12:27;5.20;99.90
30889;DHT22;51092;50.874;7.024;2023-01-16T04:13:32;5.20;99.90
30889;DHT22;51092;50.874;7.024;2023-01-16T04:14:35;5.30;99.90
30889;DHT22;51092;50.874;7.024;2023-01-16T04:15:42;5.30;99.90
30889;DHT22;51092;50.874;7.024;2023-01-16T04:16:44;5.30;99.90
30889;DHT22;51092;50.874;7.024;2023-01-16T04:17:50;5.40;99.90
30889;DHT22;51092;50.874;7.024;2023-01-16T04:18:53;5.40;99.90
30889;DHT22;51092;50.874;7.024;2023-01-16T04:19:57;5.40;99.90
30889;DHT22;51092;50.874;7.024;2023-01-16T04:21:14;5.40;99.90
30889;DHT22;51092;50.874;7.024;2023-01-16T04:22:22;5.40;99.90
30889;DHT22;51092;50.874;7.024;2023-01-16T04:23:24;5.40;99.90
30889;DHT22;51092;50.874;7.024;2023-01-16T04:24:26;5.50;99.90
30889;DHT22;51092;50.874;7.024;2023-01-16T04:25:28;5.40;99.90
30889;DHT22;51092;50.874;7.024;2023-01-16T04:26:31;5.40;99.90
30889;DHT22;51092;50.874;7.024;2023-01-16T04:27:33;5.40;99.90
30889;DHT22;51092;50.874;7.024;2023-01-16T04:28:35;5.40;99.90
30889;DHT22;51092;50.874;7.024;2023-01-16T04:29:38;5.30;99.90
30889;DHT22;51092;50.874;7.024;2023-01-16T04:30:40;5.30;99.90
30889;DHT22;51092;50.874;7.024;2023-01-16T04:31:44;5.30;99.90
30889;DHT22;51092;50.874;7.024;2023-01-16T04:32:45;5.30;99.90
30889;DHT22;51092;50.874;7.024;2023-01-16T04:33:46;5.30;99.90
30889;DHT22;51092;50.874;7.024;2023-01-16T04:34:47;5.30;99.90
30889;DHT22;51092;50.874;7.024;2023-01-16T04:35:49;5.30;99.90
30889;DHT22;51092;50.874;7.024;2023-01-16T04:36:52;5.30;99.90
30889;DHT22;51092;50.874;7.024;2023-01-16T04:37:55;5.40;99.90
30889;DHT22;51092;50.874;7.024;2023-01-16T04:38:56;5.30;99.90
30889;DHT22;51092;50.874;7.024;2023-01-16T04:39:58;5.30;99.90
30889;DHT22;51092;50.874;7.024;2023-01-16T04:40:59;5.30;99.90
30889;DHT22;51092;50.874;7.024;2023-01-16T04:42:01;5.30;99.90
30889;DHT22;51092;50.874;7.024;2023-01-16T04:43:02;5.30;99.90
30889;DHT22;51092;50.874;7.024;2023-01-16T04:44:06;5.40;99.90
30889;DHT22;51092;50.874;7.024;2023-01-16T04:45:09;5.40;99.90
30889;DHT22;51092;50.874;7.024;2023-01-16T04:46:12;5.40;99.90
30889;DHT22;51092;50.874;7.024;2023-01-16T04:47:13;5.40;99.90
30889;DHT22;51092;50.874;7.024;2023-01-16T04:48:16;5.40;99.90
30889;DHT22;51092;50.874;7.024;2023-01-16T04:49:17;5.40;99.90
30889;DHT22;51092;50.874;7.024;2023-01-16T04:50:20;5.50;99.90
30889;DHT22;51092;50.874;7.024;2023-01-16T04:51:22;5.50;99.90
30889;DHT22;51092;50.874;7.024;2023-01-16T04:52:26;5.50;99.90
30889;DHT22;51092;50.874;7.024;2023-01-16T04:53:27;5.50;99.90
30889;DHT22;51092;50.874;7.024;2023-01-16T04:54:30;5.50;99.90
30889;DHT22;51092;50.874;7.024;2023-01-16T04:55:33;5.50;99.90
30889;DHT22;51092;50.874;7.024;2023-01-16T04:56:34;5.50;99.90
30889;DHT22;51092;50.874;7.024;2023-01-16T04:57:38;5.50;99.90
30889;DHT22;51092;50.874;7.024;2023-01-16T04:58:40;5.50;99.90
30889;DHT22;51092;50.874;7.024;2023-01-16T04:59:43;5.50;99.90
30889;DHT22;51092;50.874;7.024;2023-01-16T05:00:45;5.50;99.90
30889;DHT22;51092;50.874;7.024;2023-01-16T05:01:47;5.60;99.90
30889;DHT22;51092;50.874;7.024;2023-01-16T05:02:50;5.60;99.90
30889;DHT22;51092;50.874;7.024;2023-01-16T05:03:54;5.60;99.90
30889;DHT22;51092;50.874;7.024;2023-01-16T05:04:57;5.60;99.90
30889;DHT22;51092;50.874;7.024;2023-01-16T05:05:58;5.60;99.90
30889;DHT22;51092;50.874;7.024;2023-01-16T05:07:01;5.60;99.90
30889;DHT22;51092;50.874;7.024;2023-01-16T05:08:04;5.60;99.90
30889;DHT22;51092;50.874;7.024;2023-01-16T05:09:18;5.60;99.90
30889;DHT22;51092;50.874;7.024;2023-01-16T05:10:20;5.70;99.90
30889;DHT22;51092;50.874;7.024;2023-01-16T05:11:22;5.70;99.90
30889;DHT22;51092;50.874;7.024;2023-01-16T05:12:24;5.70;99.80
30889;DHT22;51092;50.874;7.024;2023-01-16T05:13:26;5.80;99.70
30889;DHT22;51092;50.874;7.024;2023-01-16T05:14:28;5.70;99.60
30889;DHT22;51092;50.874;7.024;2023-01-16T05:15:31;5.70;99.60
30889;DHT22;51092;50.874;7.024;2023-01-16T05:16:32;5.70;99.60
30889;DHT22;51092;50.874;7.024;2023-01-16T05:17:35;5.70;99.80
30889;DHT22;51092;50.874;7.024;2023-01-16T05:18:36;5.80;99.50
30889;DHT22;51092;50.874;7.024;2023-01-16T05:19:39;5.80;99.20
30889;DHT22;51092;50.874;7.024;2023-01-16T05:20:40;5.90;98.70
30889;DHT22;51092;50.874;7.024;2023-01-16T05:21:42;5.80;98.80
30889;DHT22;51092;50.874;7.024;2023-01-16T05:22:43;5.80;98.70
30889;DHT22;51092;50.874;7.024;2023-01-16T05:23:46;5.90;98.60
30889;DHT22;51092;50.874;7.024;2023-01-16T05:24:47;5.90;98.30
30889;DHT22;51092;50.874;7.024;2023-01-16T05:25:50;5.90;98.20
30889;DHT22;51092;50.874;7.024;2023-01-16T05:26:52;5.90;98.30
30889;DHT22;51092;50.874;7.024;2023-01-16T05:27:54;5.90;98.30
30889;DHT22;51092;50.874;7.024;2023-01-16T05:28:56;5.90;98.20
30889;DHT22;51092;50.874;7.024;2023-01-16T05:29:59;5.90;98.40
30889;DHT22;51092;50.874;7.024;2023-01-16T05:31:00;5.90;98.20
30889;DHT22;51092;50.874;7.024;2023-01-16T05:32:03;6.00;98.20
30889;DHT22;51092;50.874;7.024;2023-01-16T05:33:05;6.00;97.90
30889;DHT22;51092;50.874;7.024;2023-01-16T05:34:08;6.00;97.60
30889;DHT22;51092;50.874;7.024;2023-01-16T05:35:09;6.00;97.70
30889;DHT22;51092;50.874;7.024;2023-01-16T05:36:12;6.00;97.70
30889;DHT22;51092;50.874;7.024;2023-01-16T05:37:13;6.10;97.50
30889;DHT22;51092;50.874;7.024;2023-01-16T05:38:16;6.10;97.50
30889;DHT22;51092;50.874;7.024;2023-01-16T05:39:19;6.10;97.50
30889;DHT22;51092;50.874;7.024;2023-01-16T05:40:22;6.00;97.60
30889;DHT22;51092;50.874;7.024;2023-01-16T05:41:23;6.00;97.50
30889;DHT22;51092;50.874;7.024;2023-01-16T05:42:26;5.90;97.80
30889;DHT22;51092;50.874;7.024;2023-01-16T05:43:27;5.90;97.90
30889;DHT22;51092;50.874;7.024;2023-01-16T05:44:30;5.90;98.00
30889;DHT22;51092;50.874;7.024;2023-01-16T05:45:31;5.90;98.10
30889;DHT22;51092;50.874;7.024;2023-01-16T05:46:36;5.90;98.20
30889;DHT22;51092;50.874;7.024;2023-01-16T05:47:37;6.00;98.10
30889;DHT22;51092;50.874;7.024;2023-01-16T05:48:40;6.00;97.90
30889;DHT22;51092;50.874;7.024;2023-01-16T05:49:42;6.10;97.70
30889;DHT22;51092;50.874;7.024;2023-01-16T05:50:44;6.10;97.50
30889;DHT22;51092;50.874;7.024;2023-01-16T05:51:46;6.00;97.50
30889;DHT22;51092;50.874;7.024;2023-01-16T05:52:49;6.10;97.70
30889;DHT22;51092;50.874;7.024;2023-01-16T05:53:50;6.10;97.60
30889;DHT22;51092;50.874;7.024;2023-01-16T05:54:53;6.10;97.40
30889;DHT22;51092;50.874;7.024;2023-01-16T05:55:55;6.10;97.40
30889;DHT22;51092;50.874;7.024;2023-01-16T05:56:57;6.10;97.20
30889;DHT22;51092;50.874;7.024;2023-01-16T05:57:58;6.10;97.30
30889;DHT22;51092;50.874;7.024;2023-01-16T05:59:00;6.10;97.20
30889;DHT22;51092;50.874;7.024;2023-01-16T06:00:03;6.10;97.20
30889;DHT22;51092;50.874;7.024;2023-01-16T06:01:06;6.10;97.20
30889;DHT22;51092;50.874;7.024;2023-01-16T06:02:07;6.20;97.30
30889;DHT22;51092;50.874;7.024;2023-01-16T06:03:10;6.20;97.20
30889;DHT22;51092;50.874;7.024;2023-01-16T06:04:12;6.20;97.20
30889;DHT22;51092;50.874;7.024;2023-01-16T06:05:15;6.20;97.20
30889;DHT22;51092;50.874;7.024;2023-01-16T06:06:16;6.20;97.20
30889;DHT22;51092;50.874;7.024;2023-01-16T06:07:18;6.10;97.30
30889;DHT22;51092;50.874;7.024;2023-01-16T06:08:19;6.10;97.30
30889;DHT22;51092;50.874;7.024;2023-01-16T06:09:21;6.20;97.20
30889;DHT22;51092;50.874;7.024;2023-01-16T06:10:25;6.20;97.20
30889;DHT22;51092;50.874;7.024;2023-01-16T06:11:27;6.30;97.10
30889;DHT22;51092;50.874;7.024;2023-01-16T06:12:29;6.30;97.00
30889;DHT22;51092;50.874;7.024;2023-01-16T06:13:32;6.20;97.20
30889;DHT22;51092;50.874;7.024;2023-01-16T06:14:35;6.20;97.10
30889;DHT22;51092;50.874;7.024;2023-01-16T06:15:37;6.10;97.50
30889;DHT22;51092;50.874;7.024;2023-01-16T06:16:39;6.20;97.30
30889;DHT22;51092;50.874;7.024;2023-01-16T06:17:41;6.20;97.30
30889;DHT22;51092;50.874;7.024;2023-01-16T06:18:43;6.20;97.30
30889;DHT22;51092;50.874;7.024;2023-01-16T06:19:45;6.10;97.50
30889;DHT22;51092;50.874;7.024;2023-01-16T06:20:47;6.20;97.40
30889;DHT22;51092;50.874;7.024;2023-01-16T06:21:49;6.10;97.50
30889;DHT22;51092;50.874;7.024;2023-01-16T06:22:52;6.10;97.50
30889;DHT22;51092;50.874;7.024;2023-01-16T06:23:53;6.10;97.50
30889;DHT22;51092;50.874;7.024;2023-01-16T06:24:56;6.20;97.40
30889;DHT22;51092;50.874;7.024;2023-01-16T06:25:59;6.20;97.50
30889;DHT22;51092;50.874;7.024;2023-01-16T06:27:02;6.20;97.40
30889;DHT22;51092;50.874;7.024;2023-01-16T06:28:04;6.20;97.20
30889;DHT22;51092;50.874;7.024;2023-01-16T06:29:07;6.10;97.40
30889;DHT22;51092;50.874;7.024;2023-01-16T06:30:09;6.10;97.50
30889;DHT22;51092;50.874;7.024;2023-01-16T06:31:12;6.10;97.60
30889;DHT22;51092;50.874;7.024;2023-01-16T06:32:14;6.10;97.60
30889;DHT22;51092;50.874;7.024;2023-01-16T06:33:16;6.10;97.50
30889;DHT22;51092;50.874;7.024;2023-01-16T06:34:19;6.10;97.50
30889;DHT22;51092;50.874;7.024;2023-01-16T06:35:20;6.10;97.40
30889;DHT22;51092;50.874;7.024;2023-01-16T06:36:23;6.10;97.30
30889;DHT22;51092;50.874;7.024;2023-01-16T06:37:24;6.10;97.50
30889;DHT22;51092;50.874;7.024;2023-01-16T06:38:27;6.10;97.40
30889;DHT22;51092;50.874;7.024;2023-01-16T06:39:28;6.10;97.40
30889;DHT22;51092;50.874;7.024;2023-01-16T06:40:31;6.10;97.40
30889;DHT22;51092;50.874;7.024;2023-01-16T06:41:33;6.00;97.50
30889;DHT22;51092;50.874;7.024;2023-01-16T06:42:36;6.10;97.40
30889;DHT22;51092;50.874;7.024;2023-01-16T06:43:38;6.00;97.60
30889;DHT22;51092;50.874;7.024;2023-01-16T06:44:40;6.00;97.60
30889;DHT22;51092;50.874;7.024;2023-01-16T06:45:42;6.00;97.60
30889;DHT22;51092;50.874;7.024;2023-01-16T06:46:46;6.00;97.70
30889;DHT22;51092;50.874;7.024;2023-01-16T06:47:51;6.00;97.90
30889;DHT22;51092;50.874;7.024;2023-01-16T06:48:52;6.00;97.60
30889;DHT22;51092;50.874;7.024;2023-01-16T06:49:55;6.00;97.70
30889;DHT22;51092;50.874;7.024;2023-01-16T06:50:56;6.00;97.70
30889;DHT22;51092;50.874;7.024;2023-01-16T06:52:00;6.10;97.60
30889;DHT22;51092;50.874;7.024;2023-01-16T06:53:01;6.00;97.60
30889;DHT22;51092;50.874;7.024;2023-01-16T06:54:04;6.10;97.50
30889;DHT22;51092;50.874;7.024;2023-01-16T06:55:06;6.10;97.30
30889;DHT22;51092;50.874;7.024;2023-01-16T06:56:08;6.10;97.10
30889;DHT22;51092;50.874;7.024;2023-01-16T06:57:12;6.10;97.10
30889;DHT22;51092;50.874;7.024;2023-01-16T06:58:16;6.10;97.20
30889;DHT22;51092;50.874;7.024;2023-01-16T06:59:17;6.00;97.20
30889;DHT22;51092;50.874;7.024;2023-01-16T07:00:20;6.10;97.10